sensor_id;sensor_type;location;lat;lon;timestamp;temperature;humidity
38854;DHT22;24606;51.992;4.198;2022-11-23T00:01:36;17.10;71.60
38854;DHT22;24606;51.992;4.198;2022-11-23T00:06:39;17.20;70.60
38854;DHT22;24606;51.992;4.198;2022-11-23T00:11:42;17.70;67.90
38854;DHT22;24606;51.992;4.198;2022-11-23T00:16:44;17.90;66.50
38854;DHT22;24606;51.992;4.198;2022-11-23T00:21:46;17.50;68.00
38854;DHT22;24606;51.992;4.198;2022-11-23T00:26:49;17.40;69.70
38854;DHT22;24606;51.992;4.198;2022-11-23T00:31:51;16.10;75.40
38854;DHT22;24606;51.992;4.198;2022-11-23T00:36:52;15.70;76.30
38854;DHT22;24606;51.992;4.198;2022-11-23T00:41:56;15.40;81.10
38854;DHT22;24606;51.992;4.198;2022-11-23T00:46:58;17.20;70.70
38854;DHT22;24606;51.992;4.198;2022-11-23T00:51:59;17.50;67.20
38854;DHT22;24606;51.992;4.198;2022-11-23T00:57:02;17.90;65.80
38854;DHT22;24606;51.992;4.198;2022-11-23T01:02:04;17.60;66.50
38854;DHT22;24606;51.992;4.198;2022-11-23T01:07:06;15.10;83.30
38854;DHT22;24606;51.992;4.198;2022-11-23T01:12:09;16.00;74.90
38854;DHT22;24606;51.992;4.198;2022-11-23T01:17:11;15.70;78.10
38854;DHT22;24606;51.992;4.198;2022-11-23T01:22:13;16.70;72.70
38854;DHT22;24606;51.992;4.198;2022-11-23T01:27:16;16.40;76.30
38854;DHT22;24606;51.992;4.198;2022-11-23T01:32:18;15.10;80.40
38854;DHT22;24606;51.992;4.198;2022-11-23T01:37:20;15.20;79.70
38854;DHT22;24606;51.992;4.198;2022-11-23T01:42:38;15.90;76.80
38854;DHT22;24606;51.992;4.198;2022-11-23T01:47:40;14.90;82.40
38854;DHT22;24606;51.992;4.198;2022-11-23T01:52:42;14.80;87.30
38854;DHT22;24606;51.992;4.198;2022-11-23T01:57:45;16.00;79.70
38854;DHT22;24606;51.992;4.198;2022-11-23T02:02:51;16.60;72.30
38854;DHT22;24606;51.992;4.198;2022-11-23T02:07:54;16.90;71.10
38854;DHT22;24606;51.992;4.198;2022-11-23T02:13:02;15.90;73.90
38854;DHT22;24606;51.992;4.198;2022-11-23T02:18:10;14.60;85.70
38854;DHT22;24606;51.992;4.198;2022-11-23T02:23:21;15.70;77.20
38854;DHT22;24606;51.992;4.198;2022-11-23T02:28:28;16.70;73.50
38854;DHT22;24606;51.992;4.198;2022-11-23T02:33:35;15.40;83.30
38854;DHT22;24606;51.992;4.198;2022-11-23T02:38:37;16.00;77.70
38854;DHT22;24606;51.992;4.198;2022-11-23T02:43:40;15.60;80.60
38854;DHT22;24606;51.992;4.198;2022-11-23T02:48:42;15.90;77.60
38854;DHT22;24606;51.992;4.198;2022-11-23T02:53:44;16.50;74.90
38854;DHT22;24606;51.992;4.198;2022-11-23T02:58:48;15.90;77.60
38854;DHT22;24606;51.992;4.198;2022-11-23T03:03:49;16.70;73.10
38854;DHT22;24606;51.992;4.198;2022-11-23T03:08:51;17.10;70.30
38854;DHT22;24606;51.992;4.198;2022-11-23T03:13:55;17.90;65.30
38854;DHT22;24606;51.992;4.198;2022-11-23T03:18:56;18.10;63.70
38854;DHT22;24606;51.992;4.198;2022-11-23T03:23:58;18.00;64.30
38854;DHT22;24606;51.992;4.198;2022-11-23T03:29:02;18.10;64.10
38854;DHT22;24606;51.992;4.198;2022-11-23T03:34:03;17.90;64.60
38854;DHT22;24606;51.992;4.198;2022-11-23T03:39:05;18.00;64.00
38854;DHT22;24606;51.992;4.198;2022-11-23T03:44:09;18.00;64.30
38854;DHT22;24606;51.992;4.198;2022-11-23T03:49:11;18.00;64.30
38854;DHT22;24606;51.992;4.198;2022-11-23T03:54:13;16.70;67.70
38854;DHT22;24606;51.992;4.198;2022-11-23T03:59:16;17.60;66.90
38854;DHT22;24606;51.992;4.198;2022-11-23T04:04:18;17.50;66.40
38854;DHT22;24606;51.992;4.198;2022-11-23T04:09:20;15.30;79.70
38854;DHT22;24606;51.992;4.198;2022-11-23T04:14:24;17.00;71.60
38854;DHT22;24606;51.992;4.198;2022-11-23T04:19:26;16.50;71.80
38854;DHT22;24606;51.992;4.198;2022-11-23T04:24:28;17.00;69.70
38854;DHT22;24606;51.992;4.198;2022-11-23T04:29:31;16.60;73.10
38854;DHT22;24606;51.992;4.198;2022-11-23T04:34:33;16.70;72.60
38854;DHT22;24606;51.992;4.198;2022-11-23T04:39:34;15.70;78.30
38854;DHT22;24606;51.992;4.198;2022-11-23T04:44:38;15.30;82.30
38854;DHT22;24606;51.992;4.198;2022-11-23T04:49:40;16.80;73.50
38854;DHT22;24606;51.992;4.198;2022-11-23T04:54:42;17.80;65.90
38854;DHT22;24606;51.992;4.198;2022-11-23T04:59:45;17.70;65.90
38854;DHT22;24606;51.992;4.198;2022-11-23T05:04:47;17.40;68.00
38854;DHT22;24606;51.992;4.198;2022-11-23T05:09:48;18.00;64.70
38854;DHT22;24606;51.992;4.198;2022-11-23T05:14:52;17.80;64.50
38854;DHT22;24606;51.992;4.198;2022-11-23T05:19:54;17.80;65.30
38854;DHT22;24606;51.992;4.198;2022-11-23T05:24:56;17.60;66.50
38854;DHT22;24606;51.992;4.198;2022-11-23T05:29:59;17.80;64.30
38854;DHT22;24606;51.992;4.198;2022-11-23T05:35:01;17.50;63.30
38854;DHT22;24606;51.992;4.198;2022-11-23T05:40:04;18.10;63.70
38854;DHT22;24606;51.992;4.198;2022-11-23T05:45:08;18.20;63.20
38854;DHT22;24606;51.992;4.198;2022-11-23T05:50:10;17.90;64.10
38854;DHT22;24606;51.992;4.198;2022-11-23T05:55:11;18.40;62.60
38854;DHT22;24606;51.992;4.198;2022-11-23T06:00:17;18.40;62.40
38854;DHT22;24606;51.992;4.198;2022-11-23T06:05:19;18.40;62.80
38854;DHT22;24606;51.992;4.198;2022-11-23T06:10:21;18.40;62.60
38854;DHT22;24606;51.992;4.198;2022-11-23T06:15:24;18.40;62.80
38854;DHT22;24606;51.992;4.198;2022-11-23T06:20:26;18.10;64.20
38854;DHT22;24606;51.992;4.198;2022-11-23T06:25:28;18.30;63.30
38854;DHT22;24606;51.992;4.198;2022-11-23T06:30:31;18.40;62.80
38854;DHT22;24606;51.992;4.198;2022-11-23T06:35:33;18.40;62.60
38854;DHT22;24606;51.992;4.198;2022-11-23T06:40:35;18.40;62.90
38854;DHT22;24606;51.992;4.198;2022-11-23T06:45:38;18.40;63.20
38854;DHT22;24606;51.992;4.198;2022-11-23T06:50:40;18.50;62.60
38854;DHT22;24606;51.992;4.198;2022-11-23T06:55:42;18.30;63.70
38854;DHT22;24606;51.992;4.198;2022-11-23T07:00:45;18.40;63.30
38854;DHT22;24606;51.992;4.198;2022-11-23T07:15:26;18.40;62.30
38854;DHT22;24606;51.992;4.198;2022-11-23T07:20:27;18.50;62.80
38854;DHT22;24606;51.992;4.198;2022-11-23T07:25:31;18.50;62.80
38854;DHT22;24606;51.992;4.198;2022-11-23T07:30:34;18.70;62.30
38854;DHT22;24606;51.992;4.198;2022-11-23T07:35:37;18.60;62.10
38854;DHT22;24606;51.992;4.198;2022-11-23T07:40:40;18.30;63.70
38854;DHT22;24606;51.992;4.198;2022-11-23T07:45:43;18.10;63.90
38854;DHT22;24606;51.992;4.198;2022-11-23T07:50:45;18.40;63.90
38854;DHT22;24606;51.992;4.198;2022-11-23T07:55:47;18.20;63.90
38854;DHT22;24606;51.992;4.198;2022-11-23T08:00:50;17.80;62.50
38854;DHT22;24606;51.992;4.198;2022-11-23T08:05:52;17.50;67.10
38854;DHT22;24606;51.992;4.198;2022-11-23T08:10:54;17.60;66.30
38854;DHT22;24606;51.992;4.198;2022-11-23T08:15:57;18.30;63.80
38854;DHT22;24606;51.992;4.198;2022-11-23T08:21:00;18.50;62.60
38854;DHT22;24606;51.992;4.198;2022-11-23T08:26:02;18.60;62.40
38854;DHT22;24606;51.992;4.198;2022-11-23T08:31:06;18.80;61.40
38854;DHT22;24606;51.992;4.198;2022-11-23T08:36:08;18.70;61.40
38854;DHT22;24606;51.992;4.198;2022-11-23T08:41:10;18.60;61.20
38854;DHT22;24606;51.992;4.198;2022-11-23T08:46:14;18.70;61.20
38854;DHT22;24606;51.992;4.198;2022-11-23T08:51:15;18.80;60.90
38854;DHT22;24606;51.992;4.198;2022-11-23T08:56:22;18.70;60.90
38854;DHT22;24606;51.992;4.198;2022-11-23T09:01:25;18.60;61.20
38854;DHT22;24606;51.992;4.198;2022-11-23T09:06:27;18.70;60.70
38854;DHT22;24606;51.992;4.198;2022-11-23T09:11:29;18.50;61.20
38854;DHT22;24606;51.992;4.198;2022-11-23T09:16:32;18.50;61.20
38854;DHT22;24606;51.992;4.198;2022-11-23T09:21:34;18.70;60.10
38854;DHT22;24606;51.992;4.198;2022-11-23T09:26:39;18.50;60.10
38854;DHT22;24606;51.992;4.198;2022-11-23T09:31:43;18.60;59.70
38854;DHT22;24606;51.992;4.198;2022-11-23T09:36:44;18.40;60.30
38854;DHT22;24606;51.992;4.198;2022-11-23T09:42:11;18.10;61.40
38854;DHT22;24606;51.992;4.198;2022-11-23T09:47:28;18.50;59.10
38854;DHT22;24606;51.992;4.198;2022-11-23T09:52:34;18.30;58.60
38854;DHT22;24606;51.992;4.198;2022-11-23T09:57:38;18.20;59.50
38854;DHT22;24606;51.992;4.198;2022-11-23T10:02:43;17.40;55.80
38854;DHT22;24606;51.992;4.198;2022-11-23T10:07:57;17.90;60.20
38854;DHT22;24606;51.992;4.198;2022-11-23T10:13:23;17.70;60.80
38854;DHT22;24606;51.992;4.198;2022-11-23T10:18:37;18.10;59.40
38854;DHT22;24606;51.992;4.198;2022-11-23T10:23:51;18.20;59.30
38854;DHT22;24606;51.992;4.198;2022-11-23T10:28:53;18.10;59.60
38854;DHT22;24606;51.992;4.198;2022-11-23T10:34:06;18.10;58.90
38854;DHT22;24606;51.992;4.198;2022-11-23T10:39:16;18.20;58.80
38854;DHT22;24606;51.992;4.198;2022-11-23T10:44:29;18.20;59.10
38854;DHT22;24606;51.992;4.198;2022-11-23T10:49:34;18.30;58.40
38854;DHT22;24606;51.992;4.198;2022-11-23T10:54:48;18.40;58.20
38854;DHT22;24606;51.992;4.198;2022-11-23T11:00:00;18.50;57.70
38854;DHT22;24606;51.992;4.198;2022-11-23T11:05:21;18.40;58.20
38854;DHT22;24606;51.992;4.198;2022-11-23T11:10:34;18.40;58.10
38854;DHT22;24606;51.992;4.198;2022-11-23T11:15:36;18.20;58.50
38854;DHT22;24606;51.992;4.198;2022-11-23T11:20:44;18.50;57.60
38854;DHT22;24606;51.992;4.198;2022-11-23T11:25:46;18.20;58.20
38854;DHT22;24606;51.992;4.198;2022-11-23T11:30:56;18.40;57.50
38854;DHT22;24606;51.992;4.198;2022-11-23T11:36:03;18.30;57.50
38854;DHT22;24606;51.992;4.198;2022-11-23T11:41:09;18.20;58.50
38854;DHT22;24606;51.992;4.198;2022-11-23T11:46:13;18.00;58.30
38854;DHT22;24606;51.992;4.198;2022-11-23T11:51:20;18.10;58.70
38854;DHT22;24606;51.992;4.198;2022-11-23T11:56:29;18.50;57.40
38854;DHT22;24606;51.992;4.198;2022-11-23T12:01:34;18.50;57.50
38854;DHT22;24606;51.992;4.198;2022-11-23T12:06:42;18.30;57.30
38854;DHT22;24606;51.992;4.198;2022-11-23T12:11:45;18.30;57.80
38854;DHT22;24606;51.992;4.198;2022-11-23T12:16:54;18.50;57.10
38854;DHT22;24606;51.992;4.198;2022-11-23T12:22:21;18.10;58.20
38854;DHT22;24606;51.992;4.198;2022-11-23T12:27:34;18.40;57.40
38854;DHT22;24606;51.992;4.198;2022-11-23T12:32:46;18.40;58.00
38854;DHT22;24606;51.992;4.198;2022-11-23T12:37:56;18.30;58.40
38854;DHT22;24606;51.992;4.198;2022-11-23T12:43:03;18.10;59.20
38854;DHT22;24606;51.992;4.198;2022-11-23T12:48:21;18.50;58.10
38854;DHT22;24606;51.992;4.198;2022-11-23T12:53:35;18.50;57.70
38854;DHT22;24606;51.992;4.198;2022-11-23T12:58:43;18.50;57.90
38854;DHT22;24606;51.992;4.198;2022-11-23T13:04:20;18.60;57.80
38854;DHT22;24606;51.992;4.198;2022-11-23T13:09:43;19.10;57.10
38854;DHT22;24606;51.992;4.198;2022-11-23T13:14:55;19.30;56.70
38854;DHT22;24606;51.992;4.198;2022-11-23T13:20:22;19.10;57.40
38854;DHT22;24606;51.992;4.198;2022-11-23T13:25:27;18.80;59.30
38854;DHT22;24606;51.992;4.198;2022-11-23T13:30:32;18.60;59.80
38854;DHT22;24606;51.992;4.198;2022-11-23T13:35:57;19.00;58.50
38854;DHT22;24606;51.992;4.198;2022-11-23T13:41:00;18.60;59.40
38854;DHT22;24606;51.992;4.198;2022-11-23T13:46:18;18.70;59.50
38854;DHT22;24606;51.992;4.198;2022-11-23T13:51:23;18.80;60.00
38854;DHT22;24606;51.992;4.198;2022-11-23T13:56:31;19.20;58.60
38854;DHT22;24606;51.992;4.198;2022-11-23T14:01:58;19.40;58.40
38854;DHT22;24606;51.992;4.198;2022-11-23T14:07:02;18.20;62.40
38854;DHT22;24606;51.992;4.198;2022-11-23T14:12:20;19.10;59.60
38854;DHT22;24606;51.992;4.198;2022-11-23T14:28:48;18.90;60.20
38854;DHT22;24606;51.992;4.198;2022-11-23T14:33:57;19.30;59.10
38854;DHT22;24606;51.992;4.198;2022-11-23T14:39:26;19.00;60.10
38854;DHT22;24606;51.992;4.198;2022-11-23T14:44:33;19.30;59.40
38854;DHT22;24606;51.992;4.198;2022-11-23T14:49:36;19.10;59.60
38854;DHT22;24606;51.992;4.198;2022-11-23T14:54:38;17.90;62.50
38854;DHT22;24606;51.992;4.198;2022-11-23T14:59:42;17.80;65.10
38854;DHT22;24606;51.992;4.198;2022-11-23T15:04:57;18.50;62.80
38854;DHT22;24606;51.992;4.198;2022-11-23T15:10:04;18.80;61.80
38854;DHT22;24606;51.992;4.198;2022-11-23T15:15:16;19.10;60.80
38854;DHT22;24606;51.992;4.198;2022-11-23T15:20:20;18.90;61.20
38854;DHT22;24606;51.992;4.198;2022-11-23T15:25:23;19.10;60.90
38854;DHT22;24606;51.992;4.198;2022-11-23T15:30:29;19.10;61.00
38854;DHT22;24606;51.992;4.198;2022-11-23T15:35:33;19.00;61.90
38854;DHT22;24606;51.992;4.198;2022-11-23T15:40:36;17.30;66.80
38854;DHT22;24606;51.992;4.198;2022-11-23T15:46:00;18.80;63.00
38854;DHT22;24606;51.992;4.198;2022-11-23T15:51:04;18.70;63.40
38854;DHT22;24606;51.992;4.198;2022-11-23T15:56:12;18.20;65.90
38854;DHT22;24606;51.992;4.198;2022-11-23T16:01:21;17.80;67.30
38854;DHT22;24606;51.992;4.198;2022-11-23T16:06:32;17.50;66.10
38854;DHT22;24606;51.992;4.198;2022-11-23T16:11:35;18.20;65.90
38854;DHT22;24606;51.992;4.198;2022-11-23T16:16:39;18.30;63.90
38854;DHT22;24606;51.992;4.198;2022-11-23T16:21:43;18.40;64.30
38854;DHT22;24606;51.992;4.198;2022-11-23T16:26:45;18.70;64.00
38854;DHT22;24606;51.992;4.198;2022-11-23T16:31:54;17.90;65.20
38854;DHT22;24606;51.992;4.198;2022-11-23T16:36:56;18.30;66.10
38854;DHT22;24606;51.992;4.198;2022-11-23T16:41:58;17.00;64.50
38854;DHT22;24606;51.992;4.198;2022-11-23T16:47:23;17.10;72.90
38854;DHT22;24606;51.992;4.198;2022-11-23T16:52:25;17.30;72.00
38854;DHT22;24606;51.992;4.198;2022-11-23T16:57:28;17.50;69.30
38854;DHT22;24606;51.992;4.198;2022-11-23T17:02:32;15.10;77.50
38854;DHT22;24606;51.992;4.198;2022-11-23T17:07:34;14.90;88.30
38854;DHT22;24606;51.992;4.198;2022-11-23T17:12:37;15.70;83.00
38854;DHT22;24606;51.992;4.198;2022-11-23T17:17:41;16.50;77.10
38854;DHT22;24606;51.992;4.198;2022-11-23T17:22:43;16.50;78.50
38854;DHT22;24606;51.992;4.198;2022-11-23T17:27:45;16.40;76.10
38854;DHT22;24606;51.992;4.198;2022-11-23T17:32:49;17.70;70.20
38854;DHT22;24606;51.992;4.198;2022-11-23T17:37:51;18.20;65.00
38854;DHT22;24606;51.992;4.198;2022-11-23T17:42:53;18.30;65.10
38854;DHT22;24606;51.992;4.198;2022-11-23T17:47:56;18.20;65.50
38854;DHT22;24606;51.992;4.198;2022-11-23T17:52:58;17.00;70.80
38854;DHT22;24606;51.992;4.198;2022-11-23T17:57:59;18.30;67.20
38854;DHT22;24606;51.992;4.198;2022-11-23T18:03:03;16.50;74.90
38854;DHT22;24606;51.992;4.198;2022-11-23T18:08:05;18.10;67.40
38854;DHT22;24606;51.992;4.198;2022-11-23T18:13:07;18.30;65.80
38854;DHT22;24606;51.992;4.198;2022-11-23T18:18:10;18.80;64.30
38854;DHT22;24606;51.992;4.198;2022-11-23T18:23:12;19.00;64.00
38854;DHT22;24606;51.992;4.198;2022-11-23T18:28:14;18.40;66.10
38854;DHT22;24606;51.992;4.198;2022-11-23T18:33:19;18.30;66.60
38854;DHT22;24606;51.992;4.198;2022-11-23T18:38:21;18.70;66.10
38854;DHT22;24606;51.992;4.198;2022-11-23T18:43:24;18.80;66.00
38854;DHT22;24606;51.992;4.198;2022-11-23T18:48:27;18.40;68.00
38854;DHT22;24606;51.992;4.198;2022-11-23T18:53:29;18.10;69.90
38854;DHT22;24606;51.992;4.198;2022-11-23T18:58:32;17.80;66.80
38854;DHT22;24606;51.992;4.198;2022-11-23T19:03:36;17.30;72.50
38854;DHT22;24606;51.992;4.198;2022-11-23T19:08:38;16.30;79.10
38854;DHT22;24606;51.992;4.198;2022-11-23T19:13:41;16.10;82.50
38854;DHT22;24606;51.992;4.198;2022-11-23T19:18:44;14.90;87.40
38854;DHT22;24606;51.992;4.198;2022-11-23T19:23:47;15.70;86.50
38854;DHT22;24606;51.992;4.198;2022-11-23T19:28:50;15.00;89.90
38854;DHT22;24606;51.992;4.198;2022-11-23T19:33:54;15.20;83.60
38854;DHT22;24606;51.992;4.198;2022-11-23T19:38:57;15.60;85.80
38854;DHT22;24606;51.992;4.198;2022-11-23T19:44:00;16.00;74.70
38854;DHT22;24606;51.992;4.198;2022-11-23T19:49:03;16.60;83.10
38854;DHT22;24606;51.992;4.198;2022-11-23T19:54:06;17.00;82.20
38854;DHT22;24606;51.992;4.198;2022-11-23T19:59:09;17.20;76.50
38854;DHT22;24606;51.992;4.198;2022-11-23T20:04:12;14.70;90.50
38854;DHT22;24606;51.992;4.198;2022-11-23T20:09:15;15.00;86.70
38854;DHT22;24606;51.992;4.198;2022-11-23T20:14:18;14.80;90.70
38854;DHT22;24606;51.992;4.198;2022-11-23T20:19:21;14.60;90.30
38854;DHT22;24606;51.992;4.198;2022-11-23T20:24:23;15.10;85.70
38854;DHT22;24606;51.992;4.198;2022-11-23T20:29:25;14.70;91.40
38854;DHT22;24606;51.992;4.198;2022-11-23T20:34:28;13.50;92.80
38854;DHT22;24606;51.992;4.198;2022-11-23T20:39:30;14.50;91.70
38854;DHT22;24606;51.992;4.198;2022-11-23T20:44:32;16.40;85.10
38854;DHT22;24606;51.992;4.198;2022-11-23T20:49:35;17.50;76.70
38854;DHT22;24606;51.992;4.198;2022-11-23T20:54:37;17.70;73.40
38854;DHT22;24606;51.992;4.198;2022-11-23T20:59:40;18.40;69.30
38854;DHT22;24606;51.992;4.198;2022-11-23T21:04:44;18.40;67.50
38854;DHT22;24606;51.992;4.198;2022-11-23T21:09:46;18.20;69.10
38854;DHT22;24606;51.992;4.198;2022-11-23T21:14:47;18.10;71.10
38854;DHT22;24606;51.992;4.198;2022-11-23T21:19:51;18.40;67.90
38854;DHT22;24606;51.992;4.198;2022-11-23T21:24:52;17.40;74.50
38854;DHT22;24606;51.992;4.198;2022-11-23T21:29:54;17.30;74.40
38854;DHT22;24606;51.992;4.198;2022-11-23T21:34:57;16.50;81.60
38854;DHT22;24606;51.992;4.198;2022-11-23T21:39:59;17.30;77.50
38854;DHT22;24606;51.992;4.198;2022-11-23T21:45:01;17.60;75.10
38854;DHT22;24606;51.992;4.198;2022-11-23T21:50:05;18.10;71.90
38854;DHT22;24606;51.992;4.198;2022-11-23T21:55:08;18.40;69.30
38854;DHT22;24606;51.992;4.198;2022-11-23T22:00:10;18.70;67.40
38854;DHT22;24606;51.992;4.198;2022-11-23T22:05:14;17.40;74.10
38854;DHT22;24606;51.992;4.198;2022-11-23T22:10:16;17.30;77.50
38854;DHT22;24606;51.992;4.198;2022-11-23T22:15:18;17.00;75.80
38854;DHT22;24606;51.992;4.198;2022-11-23T22:20:21;17.10;76.30
38854;DHT22;24606;51.992;4.198;2022-11-23T22:25:23;16.40;78.30
38854;DHT22;24606;51.992;4.198;2022-11-23T22:30:25;16.40;80.60
38854;DHT22;24606;51.992;4.198;2022-11-23T22:35:31;13.60;91.20
38854;DHT22;24606;51.992;4.198;2022-11-23T22:40:33;13.20;94.50
38854;DHT22;24606;51.992;4.198;2022-11-23T22:45:35;13.00;95.30
38854;DHT22;24606;51.992;4.198;2022-11-23T22:50:38;13.70;94.80
38854;DHT22;24606;51.992;4.198;2022-11-23T22:55:40;12.60;98.00
38854;DHT22;24606;51.992;4.198;2022-11-23T23:00:42;14.90;91.30
38854;DHT22;24606;51.992;4.198;2022-11-23T23:05:53;15.90;86.60
38854;DHT22;24606;51.992;4.198;2022-11-23T23:10:55;15.60;85.30
38854;DHT22;24606;51.992;4.198;2022-11-23T23:15:59;16.10;84.30
38854;DHT22;24606;51.992;4.198;2022-11-23T23:21:04;16.80;77.60
38854;DHT22;24606;51.992;4.198;2022-11-23T23:26:11;14.10;90.80
38854;DHT22;24606;51.992;4.198;2022-11-23T23:31:15;14.10;93.70
38854;DHT22;24606;51.992;4.198;2022-11-23T23:36:20;14.90;90.50
38854;DHT22;24606;51.992;4.198;2022-11-23T23:41:22;16.90;78.70
38854;DHT22;24606;51.992;4.198;2022-11-23T23:46:24;17.40;71.50
38854;DHT22;24606;51.992;4.198;2022-11-23T23:51:27;17.10;75.10
38854;DHT22;24606;51.992;4.198;2022-11-23T23:56:29;17.50;72.10
